createdAt,value
2018-12-24T00:01:16.887Z,8.83
2018-12-24T00:03:46.008Z,9.17
2018-12-24T00:06:15.008Z,8.37
2018-12-24T00:08:45.380Z,9.30
2018-12-24T00:11:14.436Z,9.93
2018-12-24T00:13:44.255Z,9.47
2018-12-24T00:16:14.156Z,10.03
2018-12-24T00:18:43.356Z,9.40
2018-12-24T00:21:12.452Z,8.23
2018-12-24T00:23:41.779Z,9.13
2018-12-24T00:26:10.942Z,9.90
2018-12-24T00:28:39.853Z,15.40
2018-12-24T00:31:09.014Z,8.80
2018-12-24T00:33:38.109Z,10.33
2018-12-24T00:36:07.170Z,8.93
2018-12-24T00:38:36.458Z,9.27
2018-12-24T00:41:05.538Z,9.87
2018-12-24T00:43:34.394Z,7.80
2018-12-24T00:46:03.490Z,8.83
2018-12-24T00:48:32.642Z,7.80
2018-12-24T00:51:01.587Z,7.40
2018-12-24T00:53:30.615Z,8.70
2018-12-24T00:55:59.646Z,9.23
2018-12-24T00:58:28.623Z,14.23
2018-12-24T01:00:57.765Z,8.83
2018-12-24T01:03:27.026Z,9.63
2018-12-24T01:05:56.053Z,8.73
2018-12-24T01:08:25.050Z,8.40
2018-12-24T01:10:54.124Z,11.03
2018-12-24T01:13:23.138Z,13.93
2018-12-24T01:15:52.107Z,8.97
2018-12-24T01:18:21.101Z,8.07
2018-12-24T01:20:50.846Z,12.57
2018-12-24T01:23:19.770Z,7.93
2018-12-24T01:25:48.798Z,23.63
2018-12-24T01:28:17.782Z,6.97
2018-12-24T01:30:47.073Z,7.20
2018-12-24T01:33:16.155Z,6.97
2018-12-24T01:35:45.217Z,7.00
2018-12-24T01:38:14.778Z,7.30
2018-12-24T01:40:43.685Z,7.13
2018-12-24T01:43:12.722Z,6.50
2018-12-24T01:45:41.849Z,6.50
2018-12-24T01:48:10.845Z,5.37
2018-12-24T01:50:39.802Z,6.47
2018-12-24T01:53:08.949Z,5.70
2018-12-24T01:55:38.024Z,5.97
2018-12-24T01:58:06.927Z,6.20
2018-12-24T02:00:35.955Z,6.23
2018-12-24T02:03:05.053Z,5.57
2018-12-24T02:05:34.074Z,7.03
2018-12-24T02:08:03.025Z,7.10
2018-12-24T02:10:32.480Z,6.30
2018-12-24T02:13:02.585Z,6.33
2018-12-24T02:15:31.543Z,7.67
2018-12-24T02:18:00.507Z,8.20
2018-12-24T02:20:29.523Z,7.87
2018-12-24T02:22:58.460Z,9.63
2018-12-24T02:25:27.497Z,9.20
2018-12-24T02:27:56.468Z,7.60
2018-12-24T02:30:25.773Z,11.57
2018-12-24T02:32:54.768Z,9.07
2018-12-24T02:35:23.772Z,9.17
2018-12-24T02:37:52.813Z,9.20
2018-12-24T02:40:21.831Z,9.50
2018-12-24T02:42:52.513Z,12.13
2018-12-24T02:45:21.515Z,15.00
2018-12-24T02:47:50.502Z,10.53
2018-12-24T02:50:19.597Z,9.57
2018-12-24T02:52:48.585Z,10.30
2018-12-24T02:55:17.620Z,10.90
2018-12-24T02:57:46.536Z,16.10
2018-12-24T03:00:15.534Z,11.37
2018-12-24T03:02:44.592Z,15.10
2018-12-24T03:05:13.831Z,11.40
2018-12-24T03:07:42.769Z,11.53
2018-12-24T03:10:11.835Z,14.93
2018-12-24T03:12:40.845Z,13.00
2018-12-24T03:15:09.907Z,11.33
2018-12-24T03:17:39.059Z,12.17
2018-12-24T03:20:08.041Z,11.83
2018-12-24T03:22:37.059Z,13.70
2018-12-24T03:25:06.299Z,12.77
2018-12-24T03:27:35.275Z,14.67
2018-12-24T03:30:04.560Z,11.23
2018-12-24T03:32:33.915Z,11.67
2018-12-24T03:35:03.216Z,12.27
2018-12-24T03:37:32.450Z,12.20
2018-12-24T03:40:01.721Z,17.33
2018-12-24T03:42:31.804Z,12.00
2018-12-24T03:45:01.237Z,12.33
2018-12-24T03:47:30.726Z,13.00
2018-12-24T03:49:59.964Z,10.93
2018-12-24T03:52:29.009Z,23.00
2018-12-24T03:54:58.203Z,13.63
2018-12-24T03:57:27.316Z,10.90
2018-12-24T03:59:57.916Z,12.83
2018-12-24T04:02:27.195Z,15.73
2018-12-24T04:04:56.233Z,14.83
2018-12-24T04:07:25.265Z,11.43
2018-12-24T04:09:55.073Z,11.10
2018-12-24T04:12:24.096Z,18.77
2018-12-24T04:14:53.467Z,11.47
2018-12-24T04:17:22.736Z,12.20
2018-12-24T04:19:51.858Z,12.30
2018-12-24T04:22:20.933Z,13.03
2018-12-24T04:24:50.101Z,11.20
2018-12-24T04:27:19.409Z,10.37
2018-12-24T04:29:48.627Z,18.13
2018-12-24T04:32:18.042Z,13.60
2018-12-24T04:34:47.358Z,11.30
2018-12-24T04:37:16.702Z,13.97
2018-12-24T04:39:46.032Z,10.30
2018-12-24T04:42:15.378Z,12.23
2018-12-24T04:44:44.747Z,11.23
2018-12-24T04:47:13.992Z,10.90
2018-12-24T04:49:43.231Z,10.73
2018-12-24T04:52:12.552Z,9.20
2018-12-24T04:54:41.651Z,10.50
2018-12-24T04:58:11.596Z,8.90
2018-12-24T05:00:40.861Z,12.73
2018-12-24T05:03:09.715Z,8.83
2018-12-24T05:05:38.640Z,9.90
2018-12-24T05:08:07.949Z,8.83
2018-12-24T05:10:37.006Z,8.50
2018-12-24T05:13:06.539Z,9.37
2018-12-24T05:15:36.322Z,7.83
2018-12-24T05:18:06.832Z,10.57
2018-12-24T05:20:36.153Z,13.20
2018-12-24T05:23:05.027Z,9.30
2018-12-24T05:25:33.833Z,8.33
2018-12-24T05:28:02.597Z,8.60
2018-12-24T05:30:31.630Z,13.83
2018-12-24T05:33:00.448Z,8.00
2018-12-24T05:35:29.228Z,8.87
2018-12-24T05:37:58.120Z,9.47
2018-12-24T05:40:27.022Z,9.27
2018-12-24T05:42:55.888Z,10.40
2018-12-24T05:45:24.723Z,8.77
2018-12-24T05:47:53.543Z,15.83
2018-12-24T05:50:22.413Z,9.03
2018-12-24T05:52:51.223Z,6.60
2018-12-24T05:55:20.087Z,7.77
2018-12-24T05:57:48.856Z,6.83
2018-12-24T06:00:17.658Z,7.60
2018-12-24T06:02:46.572Z,12.10
2018-12-24T06:05:15.356Z,11.93
2018-12-24T06:07:44.254Z,9.63
2018-12-24T06:10:13.039Z,8.30
2018-12-24T06:12:41.953Z,8.20
2018-12-24T06:15:10.896Z,6.80
2018-12-24T06:17:39.728Z,5.80
2018-12-24T06:20:08.699Z,10.33
2018-12-24T06:22:37.687Z,4.70
2018-12-24T06:25:06.491Z,5.77
2018-12-24T06:27:35.339Z,5.60
2018-12-24T06:30:04.946Z,6.67
2018-12-24T06:32:33.833Z,6.93
2018-12-24T06:35:02.799Z,6.97
2018-12-24T06:37:31.665Z,6.50
2018-12-24T06:40:00.632Z,5.60
2018-12-24T06:42:30.879Z,6.63
2018-12-24T06:44:59.789Z,7.60
2018-12-24T06:47:28.629Z,5.93
2018-12-24T06:49:57.570Z,6.37
2018-12-24T06:52:26.407Z,5.77
2018-12-24T06:54:55.294Z,5.93
2018-12-24T06:57:24.157Z,8.27
2018-12-24T06:59:53.080Z,17.20
2018-12-24T07:02:21.938Z,8.03
2018-12-24T07:04:50.760Z,5.43
2018-12-24T07:07:19.692Z,6.10
2018-12-24T07:09:48.673Z,5.47
2018-12-24T07:12:17.681Z,4.67
2018-12-24T07:14:47.163Z,4.70
2018-12-24T07:17:19.561Z,3.90
2018-12-24T07:19:51.541Z,3.57
2018-12-24T07:22:20.381Z,3.97
2018-12-24T07:24:49.288Z,4.37
2018-12-24T07:27:18.157Z,4.37
2018-12-24T07:29:47.084Z,4.90
2018-12-24T07:32:22.008Z,4.87
2018-12-24T07:34:51.889Z,4.60
2018-12-24T07:37:20.727Z,4.73
2018-12-24T07:39:49.596Z,5.07
2018-12-24T07:42:18.458Z,4.87
2018-12-24T07:44:47.356Z,3.67
2018-12-24T07:47:17.160Z,7.83
2018-12-24T07:49:46.042Z,4.17
2018-12-24T07:52:15.675Z,4.60
2018-12-24T07:54:44.605Z,4.60
2018-12-24T07:57:13.476Z,4.50
2018-12-24T07:59:43.752Z,4.70
2018-12-24T08:02:12.740Z,5.20
2018-12-24T08:04:41.565Z,5.37
2018-12-24T08:07:10.529Z,6.17
2018-12-24T08:09:39.554Z,6.53
2018-12-24T08:12:08.450Z,5.90
2018-12-24T08:14:37.368Z,5.30
2018-12-24T08:17:06.300Z,4.93
2018-12-24T08:19:35.192Z,6.70
2018-12-24T08:22:04.133Z,5.83
2018-12-24T08:24:33.101Z,5.40
2018-12-24T08:27:01.917Z,5.67
2018-12-24T08:29:30.802Z,4.90
2018-12-24T08:31:59.857Z,5.43
2018-12-24T08:34:28.890Z,5.93
2018-12-24T08:36:59.221Z,4.30
2018-12-24T08:39:28.403Z,4.90
2018-12-24T08:41:57.299Z,5.03
2018-12-24T08:44:26.215Z,5.70
2018-12-24T08:46:55.134Z,5.73
2018-12-24T08:49:24.037Z,5.50
2018-12-24T08:51:54.525Z,6.20
2018-12-24T08:54:23.705Z,6.43
2018-12-24T08:56:52.760Z,7.27
2018-12-24T08:59:21.676Z,6.07
2018-12-24T09:01:50.677Z,7.20
2018-12-24T09:04:19.828Z,6.33
2018-12-24T09:06:48.675Z,7.13
2018-12-24T09:09:19.000Z,6.33
2018-12-24T09:11:48.186Z,7.00
2018-12-24T09:14:17.452Z,6.27
2018-12-24T09:16:46.418Z,6.47
2018-12-24T09:19:15.395Z,5.70
2018-12-24T09:21:44.288Z,7.13
2018-12-24T09:24:13.794Z,5.90
2018-12-24T09:26:42.724Z,5.83
2018-12-24T09:29:11.661Z,7.90
2018-12-24T09:31:40.697Z,8.17
2018-12-24T09:34:09.629Z,6.23
2018-12-24T09:36:38.623Z,5.87
2018-12-24T09:39:07.770Z,5.03
2018-12-24T09:41:36.889Z,5.40
2018-12-24T09:44:05.810Z,5.73
2018-12-24T09:46:35.275Z,5.20
2018-12-24T09:49:04.177Z,5.10
2018-12-24T09:51:33.074Z,9.40
2018-12-24T09:54:01.871Z,4.83
2018-12-24T09:56:30.849Z,6.20
2018-12-24T09:58:59.761Z,5.57
2018-12-24T10:01:31.240Z,10.63
2018-12-24T10:04:02.943Z,3.80
2018-12-24T10:06:31.848Z,3.10
2018-12-24T10:09:01.130Z,3.17
2018-12-24T10:11:30.065Z,3.10
2018-12-24T10:14:00.085Z,2.40
2018-12-24T10:16:28.960Z,2.70
2018-12-24T10:18:58.118Z,3.07
2018-12-24T10:21:27.103Z,7.03
2018-12-24T10:23:56.183Z,3.53
2018-12-24T10:26:25.203Z,5.80
2018-12-24T10:28:54.224Z,2.90
2018-12-24T10:31:23.503Z,2.80
2018-12-24T10:33:52.905Z,3.63
2018-12-24T10:36:21.813Z,2.80
2018-12-24T10:38:50.728Z,2.90
2018-12-24T10:41:19.863Z,2.80
2018-12-24T10:43:48.845Z,3.40
2018-12-24T10:46:17.804Z,3.50
2018-12-24T10:48:46.699Z,3.57
2018-12-24T10:51:15.710Z,4.03
2018-12-24T10:53:44.915Z,3.30
2018-12-24T10:56:13.879Z,3.50
2018-12-24T10:58:43.006Z,2.70
2018-12-24T11:01:11.961Z,4.30
2018-12-24T11:03:40.967Z,4.00
2018-12-24T11:06:09.983Z,3.93
2018-12-24T11:08:38.766Z,3.93
2018-12-24T11:11:07.574Z,3.90
2018-12-24T11:13:36.529Z,3.70
2018-12-24T11:16:05.338Z,3.87
2018-12-24T11:18:34.306Z,3.57
2018-12-24T11:21:03.260Z,4.50
2018-12-24T11:23:32.488Z,3.50
2018-12-24T11:26:01.483Z,3.80
2018-12-24T11:28:31.822Z,4.27
2018-12-24T11:31:02.593Z,5.47
2018-12-24T11:33:31.621Z,3.90
2018-12-24T11:36:01.255Z,4.40
2018-12-24T11:38:30.248Z,4.17
2018-12-24T11:40:59.311Z,4.03
2018-12-24T11:43:29.428Z,3.70
2018-12-24T11:45:58.362Z,3.53
2018-12-24T11:48:27.435Z,4.20
2018-12-24T11:50:56.284Z,4.40
2018-12-24T11:53:25.172Z,4.70
2018-12-24T11:55:54.167Z,3.90
2018-12-24T11:58:23.175Z,3.73
2018-12-24T12:00:52.182Z,3.53
2018-12-24T12:03:21.105Z,3.27
2018-12-24T12:05:49.963Z,3.83
2018-12-24T12:08:18.925Z,4.03
2018-12-24T12:10:49.345Z,4.37
2018-12-24T12:13:18.245Z,3.67
2018-12-24T12:15:47.195Z,4.00
2018-12-24T12:18:16.133Z,3.53
2018-12-24T12:20:52.477Z,4.63
2018-12-24T12:23:17.604Z,3.63
2018-12-24T12:25:46.721Z,2.87
2018-12-24T12:28:17.206Z,3.00
2018-12-24T12:30:46.814Z,3.40
2018-12-24T12:33:17.769Z,3.30
2018-12-24T12:35:46.767Z,5.10
2018-12-24T12:38:17.108Z,3.80
2018-12-24T12:40:46.045Z,3.30
2018-12-24T12:43:16.414Z,4.00
2018-12-24T12:45:51.247Z,8.33
2018-12-24T12:48:16.048Z,3.50
2018-12-24T12:50:44.971Z,3.77
2018-12-24T12:53:14.091Z,4.30
2018-12-24T12:55:43.071Z,3.43
2018-12-24T12:58:11.886Z,4.23
2018-12-24T13:00:40.890Z,3.93
2018-12-24T13:03:10.351Z,3.80
2018-12-24T13:05:40.566Z,3.40
2018-12-24T13:08:09.407Z,4.23
2018-12-24T13:10:38.522Z,3.80
2018-12-24T13:13:09.021Z,4.83
2018-12-24T13:15:38.129Z,4.60
2018-12-24T13:18:07.340Z,4.57
2018-12-24T13:20:36.521Z,4.80
2018-12-24T13:23:05.568Z,4.77
2018-12-24T13:25:35.281Z,4.43
2018-12-24T13:28:04.352Z,4.07
2018-12-24T13:30:33.409Z,3.93
2018-12-24T13:33:02.405Z,3.70
2018-12-24T13:35:31.256Z,3.90
2018-12-24T13:38:00.198Z,3.77
2018-12-24T13:40:30.682Z,3.90
2018-12-24T13:43:00.011Z,4.13
2018-12-24T13:45:30.166Z,3.83
2018-12-24T13:47:59.248Z,3.60
2018-12-24T13:50:29.489Z,4.07
2018-12-24T13:52:58.296Z,3.93
2018-12-24T13:55:27.291Z,6.27
2018-12-24T13:57:56.226Z,3.97
2018-12-24T14:00:25.219Z,4.13
2018-12-24T14:02:54.096Z,4.80
2018-12-24T14:05:23.263Z,6.17
2018-12-24T14:07:52.091Z,4.80
2018-12-24T14:10:21.078Z,5.03
2018-12-24T14:12:50.100Z,6.13
2018-12-24T14:15:19.232Z,3.53
2018-12-24T14:17:49.687Z,4.53
2018-12-24T14:20:18.536Z,3.90
2018-12-24T14:22:47.495Z,4.00
2018-12-24T14:25:17.785Z,6.17
2018-12-24T14:27:46.689Z,4.20
2018-12-24T14:30:16.562Z,5.50
2018-12-24T14:32:45.691Z,5.57
2018-12-24T14:35:14.623Z,5.60
2018-12-24T14:37:43.493Z,5.17
2018-12-24T14:40:12.632Z,5.20
2018-12-24T14:42:41.681Z,5.73
2018-12-24T14:45:10.760Z,5.80
2018-12-24T14:47:39.719Z,7.10
2018-12-24T14:50:08.781Z,15.80
2018-12-24T14:52:37.661Z,16.87
2018-12-24T14:55:06.795Z,12.27
2018-12-24T14:57:35.668Z,10.03
2018-12-24T15:00:06.411Z,8.77
2018-12-24T15:02:35.339Z,11.77
2018-12-24T15:05:04.611Z,11.23
2018-12-24T15:07:33.549Z,11.03
2018-12-24T15:10:03.868Z,12.60
2018-12-24T15:12:32.777Z,22.10
2018-12-24T15:15:01.746Z,27.40
2018-12-24T15:17:31.692Z,18.40
2018-12-24T15:20:00.888Z,20.17
2018-12-24T15:22:32.255Z,26.50
2018-12-24T15:25:01.362Z,22.80
2018-12-24T15:27:31.069Z,13.97
2018-12-24T15:30:00.309Z,9.37
2018-12-24T15:32:32.914Z,9.40
2018-12-24T15:35:01.908Z,9.73
2018-12-24T15:37:30.915Z,13.20
2018-12-24T15:40:00.576Z,9.53
2018-12-24T15:42:29.477Z,8.87
2018-12-24T15:44:58.467Z,16.90
2018-12-24T15:47:27.508Z,12.67
2018-12-24T15:49:58.297Z,8.07
2018-12-24T15:52:27.320Z,9.03
2018-12-24T15:54:56.281Z,7.63
2018-12-24T15:57:25.203Z,8.43
2018-12-24T15:59:54.130Z,11.37
2018-12-24T16:02:23.010Z,8.67
2018-12-24T16:04:51.933Z,9.77
2018-12-24T16:07:20.875Z,16.43
2018-12-24T16:09:51.171Z,7.97
2018-12-24T16:12:20.067Z,9.67
2018-12-24T16:14:49.036Z,10.00
2018-12-24T16:17:19.570Z,10.50
2018-12-24T16:19:48.484Z,17.50
2018-12-24T16:22:20.221Z,10.20
2018-12-24T16:24:49.207Z,13.00
2018-12-24T16:27:18.013Z,8.97
2018-12-24T16:29:46.816Z,13.30
2018-12-24T16:32:15.690Z,8.53
2018-12-24T16:34:44.652Z,6.93
2018-12-24T16:37:13.635Z,10.50
2018-12-24T16:39:42.506Z,8.83
2018-12-24T16:42:11.336Z,15.70
2018-12-24T16:44:40.309Z,133.43
2018-12-24T16:47:09.831Z,8.43
2018-12-24T16:49:38.764Z,11.50
2018-12-24T16:52:07.565Z,6.23
2018-12-24T16:54:36.556Z,6.47
2018-12-24T16:57:05.533Z,363.07
2018-12-24T16:59:34.441Z,421.50
2018-12-24T17:02:03.396Z,233.40
2018-12-24T17:04:32.325Z,107.43
2018-12-24T17:07:01.393Z,68.57
2018-12-24T17:09:30.479Z,16.73
2018-12-24T17:11:59.510Z,10.03
2018-12-24T17:14:28.384Z,8.07
2018-12-24T17:16:57.251Z,6.20
2018-12-24T17:19:26.187Z,6.50
2018-12-24T17:21:55.119Z,7.13
2018-12-24T17:24:24.002Z,7.93
2018-12-24T17:26:52.854Z,8.80
2018-12-24T17:29:21.888Z,7.93
2018-12-24T17:31:51.053Z,8.63
2018-12-24T17:34:19.960Z,8.87
2018-12-24T17:36:48.832Z,9.10
2018-12-24T17:39:17.722Z,7.57
2018-12-24T17:41:46.608Z,8.10
2018-12-24T17:44:15.551Z,12.50
2018-12-24T17:46:44.445Z,8.07
2018-12-24T17:49:14.578Z,7.90
2018-12-24T17:51:43.467Z,7.53
2018-12-24T17:54:12.401Z,10.40
2018-12-24T17:56:42.900Z,10.20
2018-12-24T17:59:11.665Z,15.43
2018-12-24T18:01:40.549Z,7.77
2018-12-24T18:04:09.411Z,7.57
2018-12-24T18:06:38.332Z,8.00
2018-12-24T18:09:07.292Z,10.23
2018-12-24T18:11:36.828Z,9.87
2018-12-24T18:14:06.441Z,7.13
2018-12-24T18:16:35.687Z,7.90
2018-12-24T18:19:05.298Z,8.93
2018-12-24T18:21:36.483Z,7.70
2018-12-24T18:24:05.373Z,7.47
2018-12-24T18:26:34.288Z,8.20
2018-12-24T18:29:03.283Z,8.30
2018-12-24T18:31:32.354Z,8.80
2018-12-24T18:34:03.929Z,14.63
2018-12-24T18:36:34.469Z,10.20
2018-12-24T18:39:05.724Z,9.00
2018-12-24T18:41:34.759Z,8.27
2018-12-24T18:44:03.696Z,8.20
2018-12-24T18:46:33.635Z,8.27
2018-12-24T18:49:04.772Z,11.67
2018-12-24T18:51:33.714Z,8.50
2018-12-24T18:54:06.867Z,8.60
2018-12-24T18:56:35.731Z,8.90
2018-12-24T18:59:06.262Z,12.03
2018-12-24T19:01:38.271Z,8.57
2018-12-24T19:04:07.300Z,13.80
2018-12-24T19:06:36.740Z,10.00
2018-12-24T19:09:07.673Z,11.47
2018-12-24T19:11:36.533Z,10.00
2018-12-24T19:14:05.552Z,11.50
2018-12-24T19:16:35.105Z,11.97
2018-12-24T19:19:04.008Z,9.57
2018-12-24T19:21:32.827Z,9.10
2018-12-24T19:24:01.843Z,9.63
2018-12-24T19:26:30.771Z,13.47
2018-12-24T19:28:59.649Z,13.43
2018-12-24T19:31:30.366Z,9.10
2018-12-24T19:33:59.218Z,14.10
2018-12-24T19:36:29.548Z,8.17
2018-12-24T19:39:00.460Z,10.77
2018-12-24T19:41:29.585Z,9.10
2018-12-24T19:43:58.440Z,8.50
2018-12-24T19:46:28.729Z,13.73
2018-12-24T19:48:58.161Z,11.93
2018-12-24T19:51:27.072Z,8.73
2018-12-24T19:53:56.244Z,9.87
2018-12-24T19:56:25.218Z,9.17
2018-12-24T19:58:54.685Z,9.70
2018-12-24T20:01:23.587Z,10.97
2018-12-24T20:03:52.517Z,10.67
2018-12-24T20:06:21.374Z,9.50
2018-12-24T20:08:50.263Z,11.63
2018-12-24T20:11:19.424Z,15.17
2018-12-24T20:13:48.307Z,16.60
2018-12-24T20:16:17.251Z,14.83
2018-12-24T20:18:46.106Z,15.23
2018-12-24T20:21:16.141Z,11.23
2018-12-24T20:23:45.235Z,10.13
2018-12-24T20:26:14.200Z,10.70
2018-12-24T20:28:43.476Z,10.20
2018-12-24T20:31:12.696Z,9.77
2018-12-24T20:33:42.438Z,9.73
2018-12-24T20:36:11.343Z,9.33
2018-12-24T20:38:40.320Z,9.30
2018-12-24T20:41:09.308Z,8.53
2018-12-24T20:43:38.987Z,9.30
2018-12-24T20:46:09.211Z,14.90
2018-12-24T20:48:38.005Z,11.47
2018-12-24T20:51:15.951Z,9.27
2018-12-24T20:53:38.816Z,10.67
2018-12-24T20:56:07.848Z,9.83
2018-12-24T20:58:37.577Z,8.83
2018-12-24T21:01:06.460Z,9.63
2018-12-24T21:03:36.426Z,10.00
2018-12-24T21:06:05.777Z,8.83
2018-12-24T21:08:34.732Z,8.60
2018-12-24T21:11:03.667Z,9.13
2018-12-24T21:13:32.699Z,9.33
2018-12-24T21:16:01.805Z,8.87
2018-12-24T21:18:31.485Z,9.10
2018-12-24T21:21:00.430Z,13.50
2018-12-24T21:23:31.027Z,7.67
2018-12-24T21:25:59.904Z,9.90
2018-12-24T21:28:28.785Z,13.00
2018-12-24T21:30:57.878Z,8.60
2018-12-24T21:33:26.836Z,8.53
2018-12-24T21:35:55.774Z,12.83
2018-12-24T21:38:24.855Z,18.20
2018-12-24T21:40:53.844Z,11.20
2018-12-24T21:43:22.728Z,13.53
2018-12-24T21:45:52.646Z,11.53
2018-12-24T21:48:23.927Z,10.97
2018-12-24T21:50:52.053Z,48.83
2018-12-24T21:53:20.933Z,14.97
2018-12-24T21:55:49.898Z,10.00
2018-12-24T21:58:18.996Z,10.60
2018-12-24T22:00:47.996Z,11.90
2018-12-24T22:03:17.741Z,8.70
2018-12-24T22:05:47.470Z,8.73
2018-12-24T22:08:16.395Z,11.57
2018-12-24T22:10:45.378Z,12.43
2018-12-24T22:13:15.169Z,10.00
2018-12-24T22:15:44.075Z,10.90
2018-12-24T22:18:13.167Z,11.40
2018-12-24T22:20:42.150Z,11.20
2018-12-24T22:23:11.006Z,8.77
2018-12-24T22:25:39.931Z,11.20
2018-12-24T22:28:08.894Z,10.50
2018-12-24T22:30:39.519Z,19.03
2018-12-24T22:33:08.430Z,9.13
2018-12-24T22:35:37.460Z,11.83
2018-12-24T22:38:07.813Z,12.03
2018-12-24T22:40:36.870Z,10.27
2018-12-24T22:43:05.749Z,11.67
2018-12-24T22:45:34.744Z,12.10
2018-12-24T22:48:03.836Z,14.53
2018-12-24T22:50:34.251Z,21.50
2018-12-24T22:53:04.024Z,16.70
2018-12-24T22:55:33.793Z,19.40
2018-12-24T22:58:03.119Z,20.60
2018-12-24T23:00:33.765Z,18.53
2018-12-24T23:03:04.300Z,10.73
2018-12-24T23:05:33.321Z,12.73
2018-12-24T23:08:03.854Z,15.23
2018-12-24T23:10:32.802Z,11.50
2018-12-24T23:13:02.538Z,14.10
2018-12-24T23:15:31.651Z,14.20
2018-12-24T23:18:00.775Z,10.13
2018-12-24T23:20:29.640Z,12.17
2018-12-24T23:22:58.762Z,9.60
2018-12-24T23:25:28.715Z,9.00
2018-12-24T23:27:57.582Z,8.60
2018-12-24T23:30:26.933Z,10.80
2018-12-24T23:32:56.882Z,8.37
2018-12-24T23:35:25.753Z,9.77
2018-12-24T23:37:54.672Z,8.87
2018-12-24T23:40:23.617Z,8.83
2018-12-24T23:42:52.877Z,12.97
2018-12-24T23:45:21.771Z,7.40
2018-12-24T23:47:50.739Z,9.73
2018-12-24T23:50:19.741Z,10.43
2018-12-24T23:52:48.532Z,11.63
2018-12-24T23:55:17.459Z,8.13
2018-12-24T23:57:47.157Z,8.63
